createdAt,value
2022-09-07T00:00:51.446Z,2.50
2022-09-07T00:03:18.175Z,2.10
2022-09-07T00:05:45.267Z,2.33
2022-09-07T00:08:11.641Z,2.30
2022-09-07T00:10:38.386Z,2.00
2022-09-07T00:13:05.467Z,2.17
2022-09-07T00:15:31.831Z,1.97
2022-09-07T00:17:58.126Z,2.10
2022-09-07T00:20:24.377Z,1.93
2022-09-07T00:22:50.712Z,2.33
2022-09-07T00:25:17.011Z,2.00
2022-09-07T00:27:43.267Z,2.10
2022-09-07T00:30:09.738Z,2.27
2022-09-07T00:32:37.189Z,2.10
2022-09-07T00:35:03.663Z,2.13
2022-09-07T00:37:29.927Z,2.40
2022-09-07T00:39:56.277Z,2.40
2022-09-07T00:42:22.632Z,1.73
2022-09-07T00:44:55.082Z,2.47
2022-09-07T00:47:25.995Z,2.20
2022-09-07T00:49:54.910Z,1.90
2022-09-07T00:52:22.424Z,2.10
2022-09-07T00:54:51.166Z,2.13
2022-09-07T00:57:17.666Z,2.20
2022-09-07T00:59:47.044Z,2.10
2022-09-07T01:02:15.707Z,1.83
2022-09-07T01:04:42.071Z,2.27
2022-09-07T01:07:08.712Z,2.10
2022-09-07T01:09:35.022Z,2.37
2022-09-07T01:12:02.062Z,2.20
2022-09-07T01:14:29.484Z,1.93
2022-09-07T01:17:09.950Z,2.00
2022-09-07T01:19:54.850Z,2.03
2022-09-07T01:22:40.084Z,2.23
2022-09-07T01:25:10.655Z,2.27
2022-09-07T01:28:03.088Z,2.13
2022-09-07T01:30:31.784Z,1.90
2022-09-07T01:33:03.946Z,2.30
2022-09-07T01:35:49.054Z,2.30
2022-09-07T01:38:21.424Z,2.17
2022-09-07T01:40:57.267Z,2.30
2022-09-07T01:43:32.074Z,2.20
2022-09-07T01:45:59.365Z,1.80
2022-09-07T01:48:26.406Z,2.07
2022-09-07T01:51:03.167Z,2.43
2022-09-07T01:53:35.031Z,2.03
2022-09-07T01:56:03.432Z,1.80
2022-09-07T01:58:34.879Z,1.87
2022-09-07T02:01:04.814Z,2.03
2022-09-07T02:03:33.605Z,2.30
2022-09-07T02:06:18.711Z,1.80
2022-09-07T02:08:52.444Z,2.00
2022-09-07T02:11:24.590Z,2.03
2022-09-07T02:13:54.154Z,2.00
2022-09-07T02:16:22.938Z,1.80
2022-09-07T02:18:51.756Z,2.07
2022-09-07T02:21:22.037Z,1.97
2022-09-07T02:23:53.504Z,2.07
2022-09-07T02:26:21.549Z,2.30
2022-09-07T02:28:47.997Z,2.13
2022-09-07T02:31:14.391Z,2.30
2022-09-07T02:33:40.931Z,2.20
2022-09-07T02:36:07.396Z,2.10
2022-09-07T02:38:34.602Z,2.40
2022-09-07T02:41:01.702Z,2.07
2022-09-07T02:43:28.353Z,2.50
2022-09-07T02:46:17.398Z,2.03
2022-09-07T02:48:51.301Z,2.20
2022-09-07T02:51:36.186Z,2.07
2022-09-07T02:54:02.422Z,2.47
2022-09-07T02:56:34.709Z,2.10
2022-09-07T02:59:20.640Z,2.23
2022-09-07T03:01:53.045Z,2.33
2022-09-07T03:04:39.683Z,2.50
2022-09-07T03:07:12.555Z,2.30
2022-09-07T03:09:41.369Z,2.20
2022-09-07T03:12:07.862Z,2.10
2022-09-07T03:14:34.396Z,2.50
2022-09-07T03:17:01.640Z,2.37
2022-09-07T03:19:27.990Z,2.07
2022-09-07T03:21:54.246Z,2.73
2022-09-07T03:24:20.510Z,2.40
2022-09-07T03:26:48.589Z,2.40
2022-09-07T03:29:15.234Z,2.50
2022-09-07T03:31:41.608Z,2.50
2022-09-07T03:34:08.112Z,2.27
2022-09-07T03:36:34.691Z,2.70
2022-09-07T03:39:01.319Z,2.37
2022-09-07T03:41:28.224Z,2.53
2022-09-07T03:43:54.740Z,2.80
2022-09-07T03:46:21.231Z,2.60
2022-09-07T03:48:48.583Z,2.10
2022-09-07T03:51:16.116Z,2.50
2022-09-07T03:53:43.592Z,2.97
2022-09-07T03:56:14.665Z,2.73
2022-09-07T03:58:40.920Z,2.50
2022-09-07T04:01:09.196Z,2.73
2022-09-07T04:03:35.740Z,2.80
2022-09-07T04:06:02.564Z,2.70
2022-09-07T04:08:30.047Z,2.20
2022-09-07T04:10:57.539Z,2.80
2022-09-07T04:13:24.502Z,2.73
2022-09-07T04:15:53.765Z,2.57
2022-09-07T04:18:20.446Z,2.60
2022-09-07T04:20:48.152Z,2.60
2022-09-07T04:23:14.484Z,2.60
2022-09-07T04:25:47.779Z,2.57
2022-09-07T04:28:14.801Z,2.90
2022-09-07T04:30:41.106Z,2.57
2022-09-07T04:33:07.544Z,2.87
2022-09-07T04:35:37.205Z,2.50
2022-09-07T04:38:03.804Z,2.70
2022-09-07T04:40:30.063Z,2.63
2022-09-07T04:42:56.360Z,2.80
2022-09-07T04:45:22.698Z,3.07
2022-09-07T04:47:49.208Z,2.80
2022-09-07T04:50:16.878Z,3.03
2022-09-07T04:52:46.287Z,2.83
2022-09-07T04:55:12.636Z,2.80
2022-09-07T04:57:39.152Z,3.00
2022-09-07T05:00:10.239Z,3.20
2022-09-07T05:02:38.029Z,3.00
2022-09-07T05:05:05.140Z,3.17
2022-09-07T05:07:31.711Z,2.70
2022-09-07T05:09:58.124Z,3.37
2022-09-07T05:12:24.419Z,3.30
2022-09-07T05:14:50.686Z,3.23
2022-09-07T05:17:17.088Z,2.77
2022-09-07T05:19:43.359Z,3.27
2022-09-07T05:22:09.763Z,3.10
2022-09-07T05:24:37.035Z,3.00
2022-09-07T05:27:03.898Z,2.70
2022-09-07T05:32:16.948Z,3.30
2022-09-07T05:34:43.357Z,2.93
2022-09-07T05:37:09.668Z,3.30
2022-09-07T05:39:36.011Z,3.40
2022-09-07T05:42:02.339Z,3.43
2022-09-07T05:44:44.998Z,3.20
2022-09-07T05:47:11.851Z,3.13
2022-09-07T05:49:38.258Z,2.83
2022-09-07T05:52:05.665Z,3.33
2022-09-07T05:54:31.920Z,3.50
2022-09-07T05:56:58.345Z,3.30
2022-09-07T05:59:24.641Z,3.60
2022-09-07T06:01:51.039Z,3.23
2022-09-07T06:04:17.572Z,3.40
2022-09-07T06:06:54.590Z,3.70
2022-09-07T06:09:30.763Z,3.80
2022-09-07T06:11:57.206Z,3.40
2022-09-07T06:14:23.463Z,3.50
2022-09-07T06:16:49.828Z,3.30
2022-09-07T06:19:16.135Z,3.00
2022-09-07T06:21:42.414Z,3.10
2022-09-07T06:24:09.155Z,3.50
2022-09-07T06:26:35.436Z,3.50
2022-09-07T06:29:01.946Z,3.57
2022-09-07T06:31:28.563Z,3.53
2022-09-07T06:33:55.413Z,3.73
2022-09-07T06:36:22.751Z,3.33
2022-09-07T06:38:49.629Z,3.73
2022-09-07T06:44:03.416Z,3.80
2022-09-07T06:49:15.910Z,3.73
2022-09-07T06:51:42.160Z,3.27
2022-09-07T06:56:55.635Z,4.20
2022-09-07T06:59:21.883Z,4.30
2022-09-07T07:01:48.123Z,4.03
2022-09-07T07:04:14.456Z,3.50
2022-09-07T07:06:40.720Z,3.80
2022-09-07T07:09:08.075Z,3.63
2022-09-07T07:11:37.045Z,3.40
2022-09-07T07:14:03.640Z,3.53
2022-09-07T07:16:30.010Z,3.97
2022-09-07T07:18:56.763Z,3.67
2022-09-07T07:21:23.122Z,4.13
2022-09-07T07:23:50.287Z,3.50
2022-09-07T07:26:20.905Z,3.63
2022-09-07T07:29:04.173Z,3.67
2022-09-07T07:31:32.587Z,3.92
2022-09-07T07:33:59.154Z,3.40
2022-09-07T07:36:26.683Z,3.38
2022-09-07T07:39:01.902Z,3.60
2022-09-07T07:44:17.715Z,3.40
2022-09-07T07:46:46.741Z,3.40
2022-09-07T07:49:13.008Z,3.28
2022-09-07T07:54:25.426Z,3.90
2022-09-07T07:56:51.633Z,4.13
2022-09-07T07:59:17.865Z,4.10
2022-09-07T08:01:44.171Z,4.03
2022-09-07T08:04:10.611Z,3.97
2022-09-07T08:06:38.055Z,4.07
2022-09-07T08:09:04.284Z,4.03
2022-09-07T08:11:31.201Z,3.70
2022-09-07T08:14:00.122Z,3.80
2022-09-07T08:16:26.447Z,3.70
2022-09-07T08:18:53.823Z,3.93
2022-09-07T08:21:20.149Z,4.07
2022-09-07T08:23:46.477Z,4.10
2022-09-07T08:26:12.700Z,4.40
2022-09-07T08:28:40.346Z,4.37
2022-09-07T08:31:07.419Z,3.80
2022-09-07T08:33:37.773Z,4.27
2022-09-07T08:36:05.240Z,3.87
2022-09-07T08:38:32.904Z,4.73
2022-09-07T08:40:59.941Z,4.53
2022-09-07T08:43:35.608Z,4.23
2022-09-07T08:46:10.056Z,4.93
2022-09-07T08:48:37.668Z,4.60
2022-09-07T08:51:12.823Z,4.40
2022-09-07T08:53:43.489Z,4.10
2022-09-07T08:56:19.047Z,4.40
2022-09-07T08:58:49.579Z,4.63
2022-09-07T09:01:35.509Z,4.87
2022-09-07T09:04:18.727Z,4.50
2022-09-07T09:06:48.626Z,4.70
2022-09-07T09:09:20.510Z,4.50
2022-09-07T09:11:55.827Z,5.60
2022-09-07T09:17:25.793Z,4.90
2022-09-07T09:20:04.553Z,4.50
2022-09-07T09:22:31.136Z,4.67
2022-09-07T09:25:06.068Z,4.63
2022-09-07T09:27:32.348Z,5.03
2022-09-07T09:29:58.592Z,4.30
2022-09-07T09:32:33.297Z,5.10
2022-09-07T09:35:19.822Z,4.53
2022-09-07T09:37:46.187Z,4.68
2022-09-07T09:40:39.004Z,4.75
2022-09-07T09:43:18.627Z,4.82
2022-09-07T09:48:37.320Z,4.85
2022-09-07T09:53:56.526Z,4.13
2022-09-07T09:56:23.394Z,4.95
2022-09-07T09:59:05.405Z,4.83
2022-09-07T10:01:36.262Z,4.80
2022-09-07T10:04:24.396Z,4.82
2022-09-07T10:06:55.275Z,4.97
2022-09-07T10:09:22.594Z,5.45
2022-09-07T10:12:08.491Z,5.78
2022-09-07T10:14:36.677Z,5.20
2022-09-07T10:17:11.428Z,5.85
2022-09-07T10:19:38.914Z,5.40
2022-09-07T10:22:19.478Z,5.65
2022-09-07T10:24:45.871Z,6.47
2022-09-07T10:27:21.051Z,5.80
2022-09-07T10:29:47.429Z,5.75
2022-09-07T10:32:33.912Z,5.43
2022-09-07T10:35:23.580Z,5.77
2022-09-07T10:38:09.770Z,6.83
2022-09-07T10:40:42.208Z,7.97
2022-09-07T10:43:24.010Z,6.00
2022-09-07T10:46:01.489Z,5.87
2022-09-07T10:48:32.363Z,6.20
2022-09-07T10:51:12.534Z,6.80
2022-09-07T10:56:46.420Z,6.00
2022-09-07T10:59:24.271Z,6.13
2022-09-07T11:01:56.482Z,5.80
2022-09-07T11:04:58.192Z,6.33
2022-09-07T11:07:42.599Z,6.23
2022-09-07T11:10:11.592Z,6.37
2022-09-07T11:12:38.784Z,6.30
2022-09-07T11:15:04.973Z,6.40
2022-09-07T11:17:36.040Z,6.43
2022-09-07T11:20:14.464Z,6.10
2022-09-07T11:22:49.675Z,6.83
2022-09-07T11:25:29.986Z,7.80
2022-09-07T11:27:58.883Z,6.70
2022-09-07T11:30:28.196Z,7.13
2022-09-07T11:33:06.523Z,6.40
2022-09-07T11:35:39.132Z,6.50
2022-09-07T11:38:12.808Z,6.10
2022-09-07T11:40:55.077Z,6.47
2022-09-07T11:43:30.145Z,6.87
2022-09-07T11:46:02.483Z,7.33
2022-09-07T11:48:31.333Z,7.30
2022-09-07T11:51:10.549Z,7.03
2022-09-07T11:53:39.188Z,7.00
2022-09-07T11:56:10.556Z,6.90
2022-09-07T11:58:51.781Z,7.17
2022-09-07T12:01:29.898Z,7.30
2022-09-07T12:04:16.455Z,6.73
2022-09-07T12:07:03.496Z,6.90
2022-09-07T12:09:37.741Z,6.80
2022-09-07T12:12:23.944Z,7.03
2022-09-07T12:15:01.524Z,6.77
2022-09-07T12:17:36.825Z,7.07
2022-09-07T12:20:14.269Z,7.13
2022-09-07T12:22:58.901Z,7.20
2022-09-07T12:25:29.300Z,7.27
2022-09-07T12:27:56.890Z,7.90
2022-09-07T12:30:23.991Z,6.93
2022-09-07T12:32:54.065Z,7.10
2022-09-07T12:35:27.132Z,7.07
2022-09-07T12:37:53.870Z,7.40
2022-09-07T12:40:33.220Z,6.70
2022-09-07T12:43:14.865Z,7.03
2022-09-07T12:45:41.917Z,7.40
2022-09-07T12:48:17.264Z,8.33
2022-09-07T12:50:56.627Z,9.03
2022-09-07T12:53:29.264Z,6.87
2022-09-07T12:56:17.816Z,7.10
2022-09-07T12:59:18.938Z,7.13
2022-09-07T13:01:56.521Z,7.30
2022-09-07T13:04:35.657Z,6.77
2022-09-07T13:07:08.314Z,7.83
2022-09-07T13:09:35.721Z,7.20
2022-09-07T13:15:28.507Z,6.70
2022-09-07T13:17:56.124Z,6.70
2022-09-07T13:20:29.920Z,7.43
2022-09-07T13:22:57.290Z,6.93
2022-09-07T13:25:27.035Z,6.53
2022-09-07T13:28:13.311Z,6.90
2022-09-07T13:31:00.077Z,7.10
2022-09-07T13:33:29.239Z,7.27
2022-09-07T13:36:00.476Z,6.53
2022-09-07T13:38:27.714Z,6.83
2022-09-07T13:40:57.126Z,7.00
2022-09-07T13:43:24.338Z,7.10
2022-09-07T13:45:53.447Z,7.10
2022-09-07T13:48:38.441Z,6.60
2022-09-07T13:51:04.727Z,7.07
2022-09-07T13:53:41.031Z,6.77
2022-09-07T13:56:21.491Z,7.17
2022-09-07T13:58:49.319Z,6.63
2022-09-07T14:01:18.677Z,7.23
2022-09-07T14:03:47.784Z,6.90
2022-09-07T14:06:26.814Z,6.70
2022-09-07T14:08:54.551Z,6.97
2022-09-07T14:11:22.280Z,7.47
2022-09-07T14:14:07.533Z,6.73
2022-09-07T14:16:34.720Z,7.30
2022-09-07T14:19:01.620Z,7.03
2022-09-07T14:21:27.879Z,6.90
2022-09-07T14:23:58.051Z,6.70
2022-09-07T14:26:24.339Z,6.33
2022-09-07T14:28:52.340Z,6.90
2022-09-07T14:31:19.991Z,6.30
2022-09-07T14:33:50.594Z,6.83
2022-09-07T14:36:41.873Z,6.67
2022-09-07T14:39:06.279Z,7.10
2022-09-07T14:41:34.608Z,6.83
2022-09-07T14:44:01.002Z,7.00
2022-09-07T14:46:28.955Z,6.23
2022-09-07T14:49:00.564Z,6.53
2022-09-07T14:51:34.988Z,6.60
2022-09-07T14:54:03.190Z,6.80
2022-09-07T14:56:32.395Z,7.47
2022-09-07T14:58:58.624Z,6.43
2022-09-07T15:01:40.723Z,6.43
2022-09-07T15:04:16.646Z,6.50
2022-09-07T15:09:36.539Z,6.23
2022-09-07T15:12:04.260Z,6.97
2022-09-07T15:14:30.523Z,6.23
2022-09-07T15:19:44.494Z,6.80
2022-09-07T15:22:11.248Z,6.00
2022-09-07T15:24:37.462Z,6.80
2022-09-07T15:27:17.342Z,6.30
2022-09-07T15:29:46.154Z,6.67
2022-09-07T15:32:12.476Z,6.33
2022-09-07T15:34:38.806Z,5.97
2022-09-07T15:38:01.012Z,6.30
2022-09-07T15:39:52.813Z,6.33
2022-09-07T15:45:05.871Z,7.07
2022-09-07T15:47:51.519Z,6.57
2022-09-07T15:50:19.169Z,6.47
2022-09-07T15:52:46.281Z,6.40
2022-09-07T15:55:13.199Z,5.90
2022-09-07T15:58:08.743Z,5.90
2022-09-07T16:00:25.637Z,6.70
2022-09-07T16:03:08.297Z,8.03
2022-09-07T16:05:35.135Z,6.10
2022-09-07T16:11:05.829Z,6.50
2022-09-07T16:13:33.300Z,6.50
2022-09-07T16:16:00.574Z,7.27
2022-09-07T16:18:31.291Z,6.47
2022-09-07T16:21:03.490Z,6.10
2022-09-07T16:23:29.732Z,6.20
2022-09-07T16:25:57.551Z,6.57
2022-09-07T16:28:24.039Z,5.80
2022-09-07T16:30:50.257Z,6.50
2022-09-07T16:33:16.680Z,5.87
2022-09-07T16:35:42.988Z,5.90
2022-09-07T16:40:55.515Z,6.40
2022-09-07T16:43:21.792Z,6.67
2022-09-07T16:46:03.596Z,6.63
2022-09-07T16:48:31.343Z,6.13
2022-09-07T16:51:02.031Z,6.47
2022-09-07T16:53:29.858Z,6.53
2022-09-07T16:56:02.798Z,6.57
2022-09-07T16:58:37.790Z,6.47
2022-09-07T17:01:08.008Z,6.50
2022-09-07T17:03:35.904Z,6.47
2022-09-07T17:06:02.776Z,5.83
2022-09-07T17:08:29.067Z,6.17
2022-09-07T17:11:08.474Z,6.50
2022-09-07T17:13:37.111Z,6.63
2022-09-07T17:16:07.809Z,6.60
2022-09-07T17:21:24.114Z,6.87
2022-09-07T17:23:55.345Z,7.10
2022-09-07T17:26:23.709Z,6.60
2022-09-07T17:28:53.647Z,6.77
2022-09-07T17:34:11.518Z,5.97
2022-09-07T17:36:37.761Z,5.10
2022-09-07T17:39:19.886Z,4.23
2022-09-07T17:41:47.573Z,4.10
2022-09-07T17:44:14.793Z,3.80
2022-09-07T17:46:41.066Z,3.13
2022-09-07T17:49:10.089Z,2.90
2022-09-07T17:51:36.345Z,5.50
2022-09-07T17:54:09.182Z,3.20
2022-09-07T17:56:36.029Z,3.30
2022-09-07T18:01:49.340Z,4.27
2022-09-07T18:04:15.703Z,6.73
2022-09-07T18:06:42.027Z,3.53
2022-09-07T18:09:08.244Z,3.73
2022-09-07T18:11:50.841Z,4.50
2022-09-07T18:14:17.762Z,4.03
2022-09-07T18:16:45.181Z,3.70
2022-09-07T18:19:12.131Z,4.37
2022-09-07T18:21:39.346Z,4.97
2022-09-07T18:24:08.360Z,4.33
2022-09-07T18:26:36.254Z,4.40
2022-09-07T18:29:04.819Z,4.63
2022-09-07T18:31:33.260Z,4.70
2022-09-07T18:34:01.741Z,5.00
2022-09-07T18:36:29.113Z,4.83
2022-09-07T18:38:55.545Z,5.10
2022-09-07T18:41:21.958Z,5.70
2022-09-07T18:43:48.449Z,4.90
2022-09-07T18:46:15.906Z,5.20
2022-09-07T18:48:42.576Z,5.57
2022-09-07T18:51:09.786Z,5.60
2022-09-07T18:53:36.430Z,5.67
2022-09-07T18:56:04.658Z,8.10
2022-09-07T18:58:31.387Z,5.90
2022-09-07T19:01:02.254Z,6.00
2022-09-07T19:03:28.608Z,5.87
2022-09-07T19:05:58.708Z,6.20
2022-09-07T19:08:25.170Z,6.10
2022-09-07T19:10:51.806Z,6.27
2022-09-07T19:13:18.066Z,6.30
2022-09-07T19:15:44.306Z,5.93
2022-09-07T19:18:10.518Z,5.87
2022-09-07T19:20:36.816Z,6.87
2022-09-07T19:23:03.486Z,6.87
2022-09-07T19:25:29.768Z,5.90
2022-09-07T19:27:56.022Z,6.43
2022-09-07T19:30:22.244Z,8.60
2022-09-07T19:32:48.994Z,6.10
2022-09-07T19:35:15.304Z,5.97
2022-09-07T19:37:41.675Z,6.27
2022-09-07T19:40:10.290Z,6.33
2022-09-07T19:42:36.581Z,6.97
2022-09-07T19:45:03.546Z,7.00
2022-09-07T19:47:29.752Z,6.50
2022-09-07T19:49:55.972Z,6.03
2022-09-07T19:52:22.336Z,6.40
2022-09-07T19:54:48.591Z,6.63
2022-09-07T19:57:14.821Z,7.23
2022-09-07T19:59:41.127Z,6.53
2022-09-07T20:02:09.176Z,7.23
2022-09-07T20:04:35.811Z,6.50
2022-09-07T20:07:02.036Z,6.33
2022-09-07T20:09:28.251Z,6.50
2022-09-07T20:11:54.584Z,6.50
2022-09-07T20:14:20.833Z,6.60
2022-09-07T20:16:47.114Z,6.60
2022-09-07T20:19:14.944Z,6.20
2022-09-07T20:21:41.374Z,6.10
2022-09-07T20:24:07.636Z,6.93
2022-09-07T20:26:33.907Z,6.30
2022-09-07T20:29:23.801Z,6.63
2022-09-07T20:31:46.837Z,7.03
2022-09-07T20:34:13.383Z,6.50
2022-09-07T20:36:39.990Z,6.23
2022-09-07T20:39:06.219Z,6.67
2022-09-07T20:41:33.907Z,5.93
2022-09-07T20:44:00.974Z,6.10
2022-09-07T20:46:28.310Z,6.87
2022-09-07T20:48:54.589Z,6.63
2022-09-07T20:51:21.243Z,6.30
2022-09-07T20:53:47.979Z,6.63
2022-09-07T20:56:15.339Z,6.37
2022-09-07T20:58:45.016Z,6.40
2022-09-07T21:01:11.975Z,6.37
2022-09-07T21:03:38.726Z,6.20
2022-09-07T21:06:06.136Z,6.27
2022-09-07T21:08:36.508Z,6.47
2022-09-07T21:11:10.247Z,5.90
2022-09-07T21:13:36.932Z,6.17
2022-09-07T21:16:06.840Z,5.93
2022-09-07T21:18:33.725Z,5.43
2022-09-07T21:21:20.156Z,6.17
2022-09-07T21:23:47.267Z,5.53
2022-09-07T21:26:13.467Z,5.77
2022-09-07T21:28:39.715Z,6.00
2022-09-07T21:31:07.061Z,5.73
2022-09-07T21:33:34.451Z,6.00
2022-09-07T21:36:08.111Z,5.20
2022-09-07T21:38:34.673Z,5.87
2022-09-07T21:41:05.375Z,5.20
2022-09-07T21:43:31.648Z,5.43
2022-09-07T21:45:57.940Z,5.30
2022-09-07T21:48:24.218Z,5.03
2022-09-07T21:50:56.155Z,4.90
2022-09-07T21:53:22.428Z,5.27
2022-09-07T21:55:55.466Z,5.03
2022-09-07T21:58:21.879Z,5.10
2022-09-07T22:00:48.172Z,4.97
2022-09-07T22:03:14.501Z,4.90
2022-09-07T22:05:40.715Z,4.60
2022-09-07T22:08:07.055Z,4.90
2022-09-07T22:10:34.743Z,5.17
2022-09-07T22:13:01.006Z,4.97
2022-09-07T22:15:27.354Z,5.47
2022-09-07T22:17:53.991Z,5.17
2022-09-07T22:20:20.318Z,4.70
2022-09-07T22:22:46.743Z,5.53
2022-09-07T22:25:13.525Z,4.77
2022-09-07T22:27:39.753Z,4.63
2022-09-07T22:30:06.974Z,4.73
2022-09-07T22:32:33.545Z,4.67
2022-09-07T22:34:59.834Z,5.27
2022-09-07T22:37:26.042Z,5.00
2022-09-07T22:39:52.357Z,4.60
2022-09-07T22:42:18.611Z,4.90
2022-09-07T22:44:44.848Z,4.80
2022-09-07T22:47:11.071Z,4.50
2022-09-07T22:49:37.274Z,4.93
2022-09-07T22:52:03.502Z,4.77
2022-09-07T22:54:29.755Z,5.10
2022-09-07T22:56:56.000Z,5.10
2022-09-07T22:59:22.258Z,4.87
2022-09-07T23:01:49.373Z,4.50
2022-09-07T23:04:15.868Z,4.67
2022-09-07T23:06:43.081Z,4.50
2022-09-07T23:09:10.878Z,4.33
2022-09-07T23:11:37.568Z,4.83
2022-09-07T23:14:04.740Z,4.57
2022-09-07T23:16:31.072Z,4.90
2022-09-07T23:18:58.065Z,4.60
2022-09-07T23:21:24.562Z,4.57
2022-09-07T23:23:52.163Z,4.77
2022-09-07T23:26:19.399Z,4.60
2022-09-07T23:28:45.680Z,4.40
2022-09-07T23:31:12.333Z,4.43
2022-09-07T23:33:38.673Z,4.73
2022-09-07T23:36:05.965Z,4.50
2022-09-07T23:38:32.756Z,4.57
2022-09-07T23:40:59.933Z,4.17
2022-09-07T23:43:27.370Z,4.43
2022-09-07T23:45:54.352Z,4.83
2022-09-07T23:48:21.559Z,4.23
2022-09-07T23:50:47.855Z,4.17
2022-09-07T23:53:14.617Z,4.73
2022-09-07T23:55:41.240Z,3.83
2022-09-07T23:58:07.855Z,4.43
